Time;durP1;ratioP1;P1;durP2;ratioP2;P2;SDS_P1;SDS_P2;PMS_P1;PMS_P2;Temp;Humidity;BMP_temperature;BMP_pressure;BME280_temperature;BME280_humidity;BME280_pressure;Samples;Min_cycle;Max_cycle;Signal;HPM_P1;HPM_P2
2023/11/07 00:02:14;;;;;;;7.68;2.13;;;9.00;99.90;;;;;;5037956;28;20032;-78
2023/11/07 00:04:41;;;;;;;10.88;2.85;;;9.10;99.90;;;;;;5037473;28;20017;-78
2023/11/07 00:07:08;;;;;;;7.82;2.17;;;9.10;99.90;;;;;;5037471;28;20018;-78
2023/11/07 00:09:33;;;;;;;7.93;2.13;;;9.10;99.90;;;;;;5037716;28;20033;-78
2023/11/07 00:11:59;;;;;;;5.15;2.00;;;9.20;99.90;;;;;;5037603;28;20036;-79
2023/11/07 00:14:26;;;;;;;10.82;2.95;;;9.20;99.90;;;;;;5037331;28;20053;-78
2023/11/07 00:16:51;;;;;;;12.85;2.45;;;9.20;99.90;;;;;;5037817;28;20029;-78
2023/11/07 00:19:17;;;;;;;8.73;2.30;;;9.40;99.90;;;;;;5037703;28;20442;-79
2023/11/07 00:21:43;;;;;;;7.95;2.15;;;9.50;99.90;;;;;;5037458;28;20071;-77
2023/11/07 00:24:08;;;;;;;7.20;2.25;;;9.50;99.90;;;;;;5037369;28;20017;-78
2023/11/07 00:26:34;;;;;;;11.32;2.30;;;9.60;99.90;;;;;;5037160;28;20053;-78
2023/11/07 00:29:00;;;;;;;8.85;2.33;;;9.50;99.90;;;;;;5037415;28;20026;-78
2023/11/07 00:31:26;;;;;;;8.35;2.25;;;9.80;99.90;;;;;;5037515;28;20025;-78
2023/11/07 00:33:51;;;;;;;9.25;2.28;;;9.80;99.90;;;;;;5037205;28;20383;-78
2023/11/07 00:36:17;;;;;;;9.90;2.38;;;9.80;99.90;;;;;;5037275;28;20112;-79
2023/11/07 00:38:43;;;;;;;10.48;2.35;;;9.80;99.90;;;;;;5036315;28;20026;-78
2023/11/07 00:41:08;;;;;;;6.55;2.00;;;9.70;99.90;;;;;;5037371;28;20029;-78
2023/11/07 00:43:35;;;;;;;12.13;2.38;;;9.70;99.90;;;;;;5037230;28;20030;-79
2023/11/07 00:46:00;;;;;;;9.55;2.72;;;9.80;99.90;;;;;;5036205;28;20063;-78
2023/11/07 00:48:26;;;;;;;12.52;2.95;;;9.80;99.90;;;;;;5036452;28;20033;-78
2023/11/07 00:50:51;;;;;;;5.63;2.40;;;9.90;99.90;;;;;;5037065;28;20037;-78
2023/11/07 00:53:17;;;;;;;10.57;2.25;;;9.80;99.90;;;;;;5036706;28;20434;-78
2023/11/07 00:55:42;;;;;;;7.28;2.50;;;9.80;99.90;;;;;;5036189;28;20450;-78
2023/11/07 00:58:08;;;;;;;6.32;2.10;;;9.80;99.90;;;;;;5036254;28;20364;-78
2023/11/07 01:00:34;;;;;;;6.53;2.22;;;9.80;99.90;;;;;;5037283;28;20372;-78
2023/11/07 01:03:00;;;;;;;6.50;2.08;;;9.80;99.90;;;;;;5036039;28;20022;-79
2023/11/07 01:05:26;;;;;;;8.00;2.00;;;9.70;99.90;;;;;;5035767;28;20033;-79
2023/11/07 01:07:52;;;;;;;9.23;2.20;;;9.80;99.90;;;;;;5036563;28;20020;-78
2023/11/07 01:10:18;;;;;;;6.72;2.35;;;9.70;99.90;;;;;;5036217;28;20472;-78
2023/11/07 01:12:44;;;;;;;9.65;2.75;;;9.80;99.90;;;;;;5036589;28;20029;-78
2023/11/07 01:15:10;;;;;;;13.65;2.58;;;9.70;99.90;;;;;;5036512;28;20116;-78
2023/11/07 01:17:35;;;;;;;11.43;2.67;;;9.80;99.90;;;;;;5036777;28;20033;-78
2023/11/07 01:20:01;;;;;;;7.55;2.40;;;9.80;99.90;;;;;;5034961;28;20083;-78
2023/11/07 01:22:27;;;;;;;6.25;2.25;;;9.80;99.90;;;;;;5035747;28;20097;-78
2023/11/07 01:24:53;;;;;;;6.22;2.35;;;9.80;99.90;;;;;;5036174;28;20025;-79
2023/11/07 01:27:19;;;;;;;8.18;1.80;;;9.90;99.90;;;;;;5036243;28;20485;-78
2023/11/07 01:29:44;;;;;;;11.68;2.45;;;9.80;99.90;;;;;;5036224;28;20029;-78
2023/11/07 01:32:10;;;;;;;6.50;1.90;;;9.80;99.90;;;;;;5036224;28;20052;-78
2023/11/07 01:34:36;;;;;;;10.00;2.30;;;9.80;99.90;;;;;;5036374;28;20034;-79
2023/11/07 01:37:02;;;;;;;10.68;2.15;;;9.80;99.90;;;;;;5035774;28;20535;-79
2023/11/07 01:39:28;;;;;;;11.10;1.98;;;9.80;99.90;;;;;;5035805;28;20171;-78
2023/11/07 01:41:53;;;;;;;7.78;2.03;;;9.80;99.90;;;;;;5036093;28;20467;-78
2023/11/07 01:44:19;;;;;;;6.85;2.55;;;9.80;99.90;;;;;;5036257;28;20029;-78
2023/11/07 01:46:44;;;;;;;5.20;1.77;;;9.70;99.90;;;;;;5035699;28;20032;-79
2023/11/07 01:49:10;;;;;;;9.75;2.20;;;9.80;99.90;;;;;;5035918;28;20490;-79
2023/11/07 01:51:36;;;;;;;8.20;2.40;;;9.70;99.90;;;;;;5035300;28;20124;-78
2023/11/07 01:54:03;;;;;;;4.28;2.00;;;9.70;99.90;;;;;;5034787;28;20026;-78
2023/11/07 01:56:29;;;;;;;7.75;2.15;;;9.70;99.90;;;;;;5035448;28;20042;-79
2023/11/07 01:58:57;;;;;;;8.10;2.53;;;9.70;99.90;;;;;;5035535;28;20095;-78
2023/11/07 02:01:24;;;;;;;12.35;2.85;;;9.80;99.90;;;;;;5035344;28;20099;-79
2023/11/07 02:03:50;;;;;;;9.45;2.28;;;9.80;99.90;;;;;;5035142;28;20044;-80
2023/11/07 02:06:16;;;;;;;4.15;1.98;;;9.90;99.90;;;;;;5034584;28;20475;-78
2023/11/07 02:08:41;;;;;;;8.82;2.40;;;9.80;99.90;;;;;;5035071;28;20034;-78
2023/11/07 02:11:08;;;;;;;10.00;2.65;;;9.90;99.90;;;;;;5035848;28;20498;-78
2023/11/07 02:13:33;;;;;;;8.20;2.40;;;9.90;99.90;;;;;;5035669;28;20384;-78
2023/11/07 02:15:59;;;;;;;12.85;2.55;;;9.90;99.90;;;;;;5034858;28;20033;-78
2023/11/07 02:18:24;;;;;;;10.20;1.98;;;9.80;99.90;;;;;;5035187;28;20025;-78
2023/11/07 02:20:51;;;;;;;7.28;2.50;;;9.80;99.90;;;;;;5035197;28;20032;-78
2023/11/07 02:26:04;;;;;;;11.32;2.45;;;9.80;99.90;;;;;;5085591;22;20477;-75
2023/11/07 02:28:29;;;;;;;7.25;2.28;;;9.80;99.90;;;;;;5070952;28;20405;-77
2023/11/07 02:30:55;;;;;;;9.13;2.58;;;9.80;99.90;;;;;;5070858;28;20079;-77
2023/11/07 02:33:21;;;;;;;8.30;1.98;;;9.80;99.90;;;;;;5070826;28;20025;-76
2023/11/07 02:35:46;;;;;;;7.13;2.40;;;9.90;99.90;;;;;;5071026;28;20116;-76
2023/11/07 02:38:13;;;;;;;8.65;2.50;;;9.90;99.90;;;;;;5070465;28;20067;-75
2023/11/07 02:40:38;;;;;;;8.38;2.30;;;9.90;99.90;;;;;;5070104;28;20025;-76
2023/11/07 02:43:04;;;;;;;9.40;2.03;;;10.00;99.90;;;;;;5070075;28;20025;-76
2023/11/07 02:45:30;;;;;;;5.28;1.92;;;10.00;99.90;;;;;;5070316;28;20083;-75
2023/11/07 02:47:57;;;;;;;9.13;1.80;;;10.10;99.90;;;;;;5070634;28;20021;-76
2023/11/07 02:50:23;;;;;;;5.72;2.08;;;10.00;99.90;;;;;;5070693;28;20055;-74
2023/11/07 02:52:49;;;;;;;6.60;1.73;;;10.00;99.90;;;;;;5070814;28;20119;-76
2023/11/07 02:55:14;;;;;;;4.78;1.75;;;10.00;99.90;;;;;;5070777;28;20430;-77
2023/11/07 02:57:40;;;;;;;8.80;1.90;;;10.00;99.90;;;;;;5070653;28;20040;-76
2023/11/07 03:00:09;;;;;;;4.75;1.77;;;10.20;99.90;;;;;;5070571;28;20115;-75
2023/11/07 03:02:36;;;;;;;7.03;2.03;;;10.10;99.90;;;;;;5070513;28;20082;-76
2023/11/07 03:05:02;;;;;;;7.82;1.75;;;10.20;99.90;;;;;;5069492;28;20032;-76
2023/11/07 03:07:28;;;;;;;6.70;1.80;;;10.20;99.90;;;;;;5070492;28;20024;-76
2023/11/07 03:09:53;;;;;;;7.07;2.03;;;10.10;99.90;;;;;;5070393;28;20467;-76
2023/11/07 03:12:19;;;;;;;5.63;1.92;;;10.10;99.90;;;;;;5070015;28;20025;-76
2023/11/07 03:14:44;;;;;;;9.02;2.00;;;10.10;99.90;;;;;;5070256;28;20031;-76
2023/11/07 03:17:10;;;;;;;3.63;1.35;;;10.20;99.90;;;;;;5069951;28;20025;-76
2023/11/07 03:19:35;;;;;;;3.85;1.77;;;10.20;99.90;;;;;;5070496;28;20033;-76
2023/11/07 03:22:01;;;;;;;5.22;1.95;;;10.10;99.90;;;;;;5069670;28;20436;-75
2023/11/07 03:24:26;;;;;;;9.02;1.67;;;10.10;99.90;;;;;;5069960;28;20032;-76
2023/11/07 03:26:52;;;;;;;7.90;1.85;;;10.10;99.90;;;;;;5069077;28;20040;-76
2023/11/07 03:29:17;;;;;;;6.03;1.63;;;10.10;99.90;;;;;;5069402;28;20029;-76
2023/11/07 03:31:43;;;;;;;6.47;1.50;;;10.10;99.90;;;;;;5069033;28;20026;-75
2023/11/07 03:34:09;;;;;;;5.47;1.70;;;10.20;99.90;;;;;;5069326;28;20029;-75
2023/11/07 03:36:35;;;;;;;8.32;1.60;;;10.20;99.90;;;;;;5060601;28;20029;-76
2023/11/07 03:39:01;;;;;;;7.50;1.75;;;10.10;99.90;;;;;;5056358;28;20158;-76
2023/11/07 03:41:27;;;;;;;4.53;1.60;;;10.10;99.90;;;;;;5056876;28;20083;-76
2023/11/07 03:43:53;;;;;;;5.97;2.15;;;10.10;99.90;;;;;;5056154;28;20111;-76
2023/11/07 03:46:19;;;;;;;5.50;1.85;;;10.10;99.90;;;;;;5056207;28;20134;-76
2023/11/07 03:48:44;;;;;;;3.95;2.20;;;10.20;99.90;;;;;;5056396;28;20386;-76
2023/11/07 03:51:10;;;;;;;3.55;1.40;;;10.10;99.90;;;;;;5056841;28;20029;-76
2023/11/07 03:53:36;;;;;;;10.30;2.00;;;10.10;99.90;;;;;;5055988;28;20025;-76
2023/11/07 03:56:02;;;;;;;3.50;1.52;;;10.20;99.90;;;;;;5056312;28;20025;-76
2023/11/07 03:58:27;;;;;;;5.13;1.27;;;10.00;99.90;;;;;;5055746;28;20025;-76
2023/11/07 04:00:53;;;;;;;7.05;1.60;;;10.20;99.90;;;;;;5055269;28;20062;-76
2023/11/07 04:03:19;;;;;;;4.07;1.13;;;10.20;99.90;;;;;;5056259;28;20032;-76
2023/11/07 04:05:44;;;;;;;5.15;1.58;;;10.20;99.90;;;;;;5055854;28;20390;-76
2023/11/07 04:08:10;;;;;;;4.72;1.40;;;10.20;99.90;;;;;;5055784;28;20055;-76
2023/11/07 04:10:35;;;;;;;4.07;1.60;;;10.20;99.90;;;;;;5056031;28;20502;-76
2023/11/07 04:13:05;;;;;;;2.13;1.30;;;10.20;99.90;;;;;;5055683;28;20103;-76
2023/11/07 04:15:31;;;;;;;3.95;1.65;;;10.10;99.90;;;;;;5055855;28;20025;-75
2023/11/07 04:17:57;;;;;;;3.58;1.23;;;10.20;99.90;;;;;;5055555;28;20372;-76
2023/11/07 04:20:23;;;;;;;3.53;1.40;;;10.20;99.90;;;;;;5054985;28;20083;-76
2023/11/07 04:22:48;;;;;;;3.53;1.38;;;10.20;99.90;;;;;;5055781;28;20091;-76
2023/11/07 04:25:15;;;;;;;3.15;1.58;;;10.20;99.90;;;;;;5054756;28;20049;-77
2023/11/07 04:27:42;;;;;;;2.05;1.17;;;10.20;99.90;;;;;;5055294;28;20112;-75
2023/11/07 04:30:09;;;;;;;1.85;1.38;;;10.10;99.90;;;;;;5055393;28;20489;-76
2023/11/07 04:32:34;;;;;;;4.32;1.48;;;10.10;99.90;;;;;;5055621;28;20111;-75
2023/11/07 04:35:02;;;;;;;4.25;1.58;;;10.10;99.90;;;;;;5054993;28;20537;-76
2023/11/07 04:37:28;;;;;;;4.97;1.48;;;10.00;99.90;;;;;;5055475;28;20035;-75
2023/11/07 04:39:53;;;;;;;3.95;1.30;;;10.00;99.90;;;;;;5055422;28;20454;-75
2023/11/07 04:42:19;;;;;;;4.25;1.40;;;9.90;99.90;;;;;;5055413;28;20036;-76
2023/11/07 04:44:45;;;;;;;4.70;1.77;;;9.90;99.90;;;;;;5055282;28;20087;-76
2023/11/07 04:47:11;;;;;;;3.08;1.38;;;9.80;99.90;;;;;;5054431;28;20017;-76
2023/11/07 04:49:36;;;;;;;4.30;1.55;;;9.80;99.90;;;;;;5054020;28;20028;-76
2023/11/07 04:52:02;;;;;;;4.85;1.30;;;9.80;99.90;;;;;;5055244;28;20037;-75
2023/11/07 04:54:27;;;;;;;6.43;1.70;;;9.70;99.90;;;;;;5055214;28;20071;-76
2023/11/07 04:56:54;;;;;;;4.28;1.42;;;9.60;99.90;;;;;;5055106;28;20055;-75
2023/11/07 04:59:22;;;;;;;2.38;1.45;;;9.60;99.90;;;;;;5055093;28;20032;-76
2023/11/07 05:01:49;;;;;;;5.18;1.40;;;9.60;99.90;;;;;;5054708;28;20210;-76
2023/11/07 05:04:15;;;;;;;4.30;1.60;;;9.50;99.90;;;;;;5054909;28;20065;-76
2023/11/07 05:06:41;;;;;;;3.67;1.50;;;9.40;99.90;;;;;;5054676;28;20028;-75
2023/11/07 05:09:09;;;;;;;7.32;1.63;;;9.40;99.90;;;;;;5055218;28;20029;-76
2023/11/07 05:11:36;;;;;;;4.45;1.40;;;9.40;99.90;;;;;;5054533;28;20047;-75
2023/11/07 05:14:02;;;;;;;2.55;1.30;;;9.40;99.90;;;;;;5055210;28;20459;-75
2023/11/07 05:16:28;;;;;;;8.25;2.08;;;9.40;99.90;;;;;;5055154;28;20406;-76
2023/11/07 05:18:54;;;;;;;4.05;1.67;;;9.40;99.90;;;;;;5054771;28;20028;-75
2023/11/07 05:21:19;;;;;;;5.13;1.90;;;9.40;99.90;;;;;;5054707;28;20040;-76
2023/11/07 05:23:45;;;;;;;3.83;1.52;;;9.50;99.90;;;;;;5054360;28;20131;-76
2023/11/07 05:26:11;;;;;;;7.45;1.85;;;9.50;99.90;;;;;;5054072;28;20109;-76
2023/11/07 05:28:37;;;;;;;5.00;2.00;;;9.40;99.90;;;;;;5053994;28;20061;-75
2023/11/07 05:31:04;;;;;;;3.95;2.35;;;9.40;99.90;;;;;;5054512;28;20052;-76
2023/11/07 05:33:30;;;;;;;5.78;2.30;;;9.30;99.90;;;;;;5054446;28;20526;-77
2023/11/07 05:35:56;;;;;;;5.03;1.98;;;9.30;99.90;;;;;;5054419;28;20463;-76
2023/11/07 05:38:22;;;;;;;4.80;2.05;;;9.30;99.90;;;;;;5054065;28;20032;-76
2023/11/07 05:40:48;;;;;;;7.38;2.40;;;9.20;99.90;;;;;;5054719;28;20142;-76
2023/11/07 05:43:14;;;;;;;5.60;1.70;;;9.20;99.90;;;;;;5054278;28;20025;-76
2023/11/07 05:45:40;;;;;;;4.82;1.67;;;9.10;99.90;;;;;;5053868;28;20432;-76
2023/11/07 05:48:05;;;;;;;6.22;2.30;;;9.10;99.90;;;;;;5054196;28;20477;-76
2023/11/07 05:50:31;;;;;;;5.40;1.80;;;9.10;99.90;;;;;;5054547;28;20024;-75
2023/11/07 05:52:56;;;;;;;6.15;1.70;;;9.00;99.90;;;;;;5054453;28;20035;-76
2023/11/07 05:55:22;;;;;;;5.63;2.10;;;9.00;99.90;;;;;;5054317;28;20041;-76
2023/11/07 05:57:47;;;;;;;2.85;1.40;;;9.00;99.90;;;;;;5054068;28;20457;-75
2023/11/07 06:00:14;;;;;;;6.50;1.80;;;9.10;99.90;;;;;;5054053;28;20094;-76
2023/11/07 06:02:40;;;;;;;3.17;1.77;;;9.10;99.90;;;;;;5053967;28;20390;-76
2023/11/07 06:05:06;;;;;;;3.78;1.83;;;9.20;99.90;;;;;;5053749;28;20028;-75
2023/11/07 06:07:33;;;;;;;3.60;1.58;;;9.30;99.90;;;;;;5053996;28;20025;-76
2023/11/07 06:09:59;;;;;;;3.20;1.88;;;9.30;99.90;;;;;;5053724;28;20043;-76
2023/11/07 06:12:24;;;;;;;7.10;1.48;;;9.30;99.90;;;;;;5053876;28;20423;-75
2023/11/07 06:14:50;;;;;;;4.20;1.85;;;9.30;99.90;;;;;;5053522;28;20059;-76
2023/11/07 06:17:17;;;;;;;5.05;1.85;;;9.30;99.90;;;;;;5053871;28;20029;-75
2023/11/07 06:19:43;;;;;;;2.40;1.75;;;9.20;99.90;;;;;;5053420;28;20056;-75
2023/11/07 06:22:09;;;;;;;5.85;1.60;;;9.30;99.90;;;;;;5053000;28;20048;-76
2023/11/07 06:24:35;;;;;;;4.13;1.50;;;9.10;99.90;;;;;;5053674;28;20021;-76
2023/11/07 06:27:00;;;;;;;3.35;1.63;;;9.10;99.90;;;;;;5052766;28;20518;-76
2023/11/07 06:29:26;;;;;;;4.00;1.42;;;9.10;99.90;;;;;;5053795;28;20028;-76
2023/11/07 06:31:52;;;;;;;2.95;1.50;;;9.10;99.90;;;;;;5053943;28;20108;-75
2023/11/07 06:34:18;;;;;;;2.72;1.77;;;9.10;99.90;;;;;;5053669;28;20025;-76
2023/11/07 06:36:45;;;;;;;3.92;1.88;;;9.10;99.90;;;;;;5053989;28;20029;-76
2023/11/07 06:39:11;;;;;;;3.13;1.48;;;9.00;99.90;;;;;;5053682;28;20029;-76
2023/11/07 06:41:38;;;;;;;4.93;1.70;;;9.10;99.90;;;;;;5053005;28;20056;-76
2023/11/07 06:44:04;;;;;;;7.82;1.70;;;9.00;99.90;;;;;;5053398;28;20082;-76
2023/11/07 06:46:29;;;;;;;7.70;1.80;;;9.00;99.90;;;;;;5053579;28;20025;-76
2023/11/07 06:48:56;;;;;;;8.15;2.72;;;9.00;99.90;;;;;;5052641;28;20049;-75
2023/11/07 06:51:21;;;;;;;5.85;1.70;;;8.90;99.90;;;;;;5052981;28;20028;-75
2023/11/07 06:53:47;;;;;;;4.63;1.73;;;9.00;99.90;;;;;;5052725;28;20021;-76
2023/11/07 06:56:13;;;;;;;3.17;1.40;;;9.00;99.90;;;;;;5052993;28;20013;-76
2023/11/07 06:58:41;;;;;;;2.58;1.80;;;9.10;99.90;;;;;;5053069;28;20028;-76
2023/11/07 07:01:10;;;;;;;3.72;1.70;;;9.10;99.90;;;;;;5053455;28;20498;-76
2023/11/07 07:03:36;;;;;;;3.95;1.63;;;9.10;99.90;;;;;;5052788;28;20028;-76
2023/11/07 07:06:01;;;;;;;6.88;1.70;;;9.20;99.90;;;;;;5053207;28;20029;-76
2023/11/07 07:08:27;;;;;;;4.40;1.77;;;9.10;99.90;;;;;;5052925;28;20029;-75
2023/11/07 07:10:54;;;;;;;5.25;1.50;;;9.10;99.90;;;;;;5053871;28;20021;-76
2023/11/07 07:13:19;;;;;;;4.63;1.58;;;9.20;99.90;;;;;;5056648;28;20033;-75
2023/11/07 07:15:46;;;;;;;3.05;1.70;;;9.20;99.90;;;;;;5056835;28;20083;-76
2023/11/07 07:18:18;;;;;;;4.03;1.73;;;9.40;99.90;;;;;;5057113;28;20037;-76
2023/11/07 07:20:45;;;;;;;5.47;1.85;;;9.40;99.90;;;;;;5056889;28;20036;-75
2023/11/07 07:23:11;;;;;;;6.15;1.67;;;9.90;99.90;;;;;;5056455;28;20474;-76
2023/11/07 07:25:37;;;;;;;4.15;1.48;;;10.20;99.90;;;;;;5056173;28;20131;-76
2023/11/07 07:28:04;;;;;;;2.63;1.50;;;10.10;99.90;;;;;;5056696;28;20071;-76
2023/11/07 07:30:32;;;;;;;4.22;1.60;;;9.90;99.90;;;;;;5056776;28;20478;-76
2023/11/07 07:32:59;;;;;;;2.25;1.50;;;9.80;99.90;;;;;;5056686;28;20052;-76
2023/11/07 07:35:29;;;;;;;3.92;1.70;;;9.80;99.90;;;;;;5056519;28;20025;-76
2023/11/07 07:37:55;;;;;;;3.97;1.40;;;9.80;99.90;;;;;;5056702;28;20082;-76
2023/11/07 07:40:25;;;;;;;3.35;1.40;;;9.80;99.90;;;;;;5056246;28;20394;-76
2023/11/07 07:42:53;;;;;;;9.50;1.77;;;9.80;99.90;;;;;;5056200;28;20025;-76
2023/11/07 07:45:21;;;;;;;4.05;1.65;;;9.80;99.90;;;;;;5055411;28;20039;-76
2023/11/07 07:47:47;;;;;;;5.57;1.70;;;9.70;99.90;;;;;;5052188;28;20437;-76
2023/11/07 07:50:14;;;;;;;2.78;1.70;;;9.80;99.90;;;;;;5055825;28;20542;-75
2023/11/07 07:52:44;;;;;;;5.38;1.80;;;9.80;99.90;;;;;;5050979;28;20479;-75
2023/11/07 07:55:11;;;;;;;4.18;1.63;;;9.80;99.90;;;;;;5041133;28;20029;-76
2023/11/07 07:57:37;;;;;;;5.00;1.50;;;9.80;99.90;;;;;;5036710;28;20035;-75
2023/11/07 08:00:12;;;;;;;3.42;1.90;;;9.90;99.90;;;;;;5035896;28;20471;-75
2023/11/07 08:02:40;;;;;;;3.90;1.80;;;9.90;99.90;;;;;;5036074;28;20442;-76
2023/11/07 08:05:06;;;;;;;2.55;1.70;;;9.90;99.90;;;;;;5036367;28;20026;-76
2023/11/07 08:07:33;;;;;;;6.57;2.08;;;10.00;99.90;;;;;;5036109;28;20029;-77
2023/11/07 08:09:59;;;;;;;3.70;1.77;;;10.60;99.90;;;;;;5035561;28;20044;-77
2023/11/07 08:12:25;;;;;;;1.98;1.50;;;10.80;99.80;;;;;;5035513;28;20395;-77
2023/11/07 08:14:50;;;;;;;5.25;1.70;;;10.90;94.40;;;;;;5040004;28;20033;-76
2023/11/07 08:17:17;;;;;;;3.35;1.52;;;11.00;87.60;;;;;;5050225;28;20459;-78
2023/11/07 08:19:43;;;;;;;7.47;1.73;;;11.50;43.30;;;;;;5048579;28;20032;-76
2023/11/07 08:22:09;;;;;;;6.20;1.88;;;12.10;12.20;;;;;;5044361;28;20030;-79
2023/11/07 08:24:35;;;;;;;4.50;1.50;;;12.00;5.30;;;;;;5039707;28;20029;-78
2023/11/07 08:27:01;;;;;;;1.70;1.10;;;12.40;1.00;;;;;;5040024;28;20041;-77
2023/11/07 08:29:26;;;;;;;3.03;1.45;;;12.80;1.00;;;;;;5045649;28;20020;-78
2023/11/07 08:31:52;;;;;;;3.75;1.58;;;13.40;1.00;;;;;;5053578;28;20484;-78
2023/11/07 08:34:22;;;;;;;1.65;1.10;;;13.40;1.00;;;;;;5055535;28;20057;-77
2023/11/07 08:36:47;;;;;;;1.65;1.23;;;13.10;1.00;;;;;;5055804;28;20057;-77
2023/11/07 08:39:24;;;;;;;1.58;1.08;;;13.20;1.00;;;;;;5052563;28;20056;-79
2023/11/07 08:41:50;;;;;;;2.88;1.20;;;13.10;1.00;;;;;;5037761;28;20036;-76
2023/11/07 08:44:16;;;;;;;3.08;1.33;;;13.40;1.00;;;;;;5034875;28;20033;-79
2023/11/07 08:46:44;;;;;;;4.70;1.60;;;13.70;1.00;;;;;;5035954;28;20064;-76
2023/11/07 08:49:10;;;;;;;3.28;1.20;;;13.40;1.00;;;;;;5045640;28;20474;-77
2023/11/07 08:51:36;;;;;;;5.60;1.60;;;13.30;1.00;;;;;;5054569;28;20020;-78
2023/11/07 08:54:01;;;;;;;1.45;0.93;;;13.40;99.90;;;;;;5052092;28;20033;-79
2023/11/07 08:56:27;;;;;;;1.55;1.00;;;13.30;1.00;;;;;;5054888;28;20108;-79
2023/11/07 08:58:52;;;;;;;3.65;1.10;;;13.30;1.00;;;;;;5055728;28;20458;-78
2023/11/07 09:01:19;;;;;;;4.88;1.30;;;13.60;1.00;;;;;;5035155;28;20419;-76
2023/11/07 09:03:45;;;;;;;3.22;0.95;;;14.40;99.90;;;;;;5034870;28;20017;-77
2023/11/07 09:06:11;;;;;;;2.17;1.10;;;14.70;1.00;;;;;;5035196;28;20053;-76
2023/11/07 09:08:37;;;;;;;5.47;1.20;;;14.60;99.90;;;;;;5035036;28;20060;-78
2023/11/07 09:11:03;;;;;;;7.38;1.45;;;13.50;99.90;;;;;;5034819;28;20479;-77
2023/11/07 09:13:29;;;;;;;6.82;1.10;;;13.20;1.00;;;;;;5034092;28;20057;-78
2023/11/07 09:15:55;;;;;;;4.03;1.30;;;13.00;1.00;;;;;;5034558;28;20420;-78
2023/11/07 09:18:21;;;;;;;1.75;1.10;;;13.10;1.00;;;;;;5035005;28;20112;-81
2023/11/07 09:20:47;;;;;;;2.80;1.20;;;13.00;1.00;;;;;;5035644;28;20107;-78
2023/11/07 09:23:12;;;;;;;3.03;1.52;;;12.70;1.00;;;;;;5031950;28;20471;-78
2023/11/07 09:25:38;;;;;;;2.47;0.90;;;12.70;1.00;;;;;;5018157;28;20073;-78
2023/11/07 09:28:03;;;;;;;2.50;1.20;;;12.50;1.00;;;;;;5017965;28;20026;-77
2023/11/07 09:30:29;;;;;;;4.95;0.88;;;12.20;1.00;;;;;;5028420;28;20471;-78
2023/11/07 09:32:56;;;;;;;6.53;1.25;;;13.50;1.00;;;;;;5034705;28;20021;-78
2023/11/07 09:35:23;;;;;;;7.70;1.13;;;13.40;1.00;;;;;;5033892;28;20057;-79
2023/11/07 09:37:49;;;;;;;4.82;1.00;;;13.30;1.00;;;;;;5035914;28;20033;-79
2023/11/07 09:40:19;;;;;;;1.77;1.10;;;13.60;1.00;;;;;;5035333;28;20033;-78
2023/11/07 09:42:48;;;;;;;1.80;1.02;;;13.80;1.00;;;;;;5035693;28;20039;-79
2023/11/07 09:45:16;;;;;;;2.40;1.00;;;13.70;99.90;;;;;;5035792;28;20120;-76
2023/11/07 09:47:49;;;;;;;2.25;1.08;;;13.80;99.90;;;;;;5034453;28;20029;-80
2023/11/07 09:50:19;;;;;;;4.00;1.05;;;13.50;99.90;;;;;;5035207;28;20448;-83
2023/11/07 09:52:46;;;;;;;3.25;1.30;;;12.70;1.00;;;;;;5035748;28;20025;-78
2023/11/07 09:55:15;;;;;;;3.90;1.50;;;12.40;1.00;;;;;;5035960;28;20383;-82
2023/11/07 09:57:49;;;;;;;4.60;1.50;;;12.40;1.00;;;;;;5036164;28;20422;-82
2023/11/07 10:00:20;;;;;;;3.33;1.30;;;12.50;1.00;;;;;;5037584;28;20430;-81
2023/11/07 10:02:48;;;;;;;2.92;1.52;;;12.30;1.00;;;;;;5037197;28;20053;-83
2023/11/07 10:05:15;;;;;;;3.88;1.30;;;12.10;1.00;;;;;;5035345;28;20057;-83
2023/11/07 10:07:41;;;;;;;5.07;1.60;;;12.20;1.00;;;;;;5036130;28;20038;-81
2023/11/07 10:10:10;;;;;;;2.13;1.40;;;12.30;1.00;;;;;;5036067;28;20087;-86
2023/11/07 10:12:39;;;;;;;3.33;1.35;;;12.20;1.00;;;;;;5035174;28;20112;-81
2023/11/07 10:15:16;;;;;;;3.92;1.60;;;12.10;1.00;;;;;;5025303;28;20026;-86
2023/11/07 10:17:59;;;;;;;3.65;1.65;;;12.00;1.00;;;;;;5028192;28;20009;-84
2023/11/07 10:20:25;;;;;;;3.83;1.90;;;12.00;2.10;;;;;;5037662;28;20040;-83
2023/11/07 10:22:52;;;;;;;4.35;1.55;;;11.90;1.00;;;;;;5032388;28;20040;-79
2023/11/07 10:25:27;;;;;;;2.75;1.50;;;11.70;1.00;;;;;;5028249;28;21742;-81
2023/11/07 10:27:54;;;;;;;4.95;1.73;;;11.60;10.90;;;;;;5020331;28;20563;-81
2023/11/07 10:30:20;;;;;;;9.88;1.80;;;11.60;1.00;;;;;;5020145;28;20092;-79
2023/11/07 10:32:47;;;;;;;8.60;1.92;;;11.60;1.00;;;;;;5024964;28;20028;-81
2023/11/07 10:35:13;;;;;;;5.45;1.65;;;11.50;2.40;;;;;;5022462;28;20526;-79
2023/11/07 10:37:39;;;;;;;4.35;1.55;;;11.60;1.00;;;;;;5019621;28;20041;-79
2023/11/07 10:40:06;;;;;;;5.10;1.88;;;11.60;1.00;;;;;;5015036;28;20026;-78
2023/11/07 10:42:34;;;;;;;4.32;1.83;;;11.50;1.00;;;;;;5021016;28;20467;-80
2023/11/07 10:45:05;;;;;;;6.05;1.98;;;11.50;1.00;;;;;;5024294;28;20562;-81
2023/11/07 10:47:35;;;;;;;4.50;1.70;;;11.60;1.00;;;;;;5019835;28;20076;-81
2023/11/07 10:50:03;;;;;;;4.72;1.77;;;11.80;1.00;;;;;;5019123;28;20076;-81
2023/11/07 10:52:28;;;;;;;5.32;1.70;;;11.80;1.00;;;;;;5023302;28;20471;-79
2023/11/07 10:54:54;;;;;;;6.40;1.85;;;11.90;1.00;;;;;;5028389;28;20057;-79
2023/11/07 10:57:25;;;;;;;2.67;1.48;;;11.90;1.00;;;;;;5029228;28;20034;-80
2023/11/07 11:00:03;;;;;;;5.20;1.75;;;11.80;1.00;;;;;;5024402;28;20037;-80
2023/11/07 11:02:29;;;;;;;4.43;2.22;;;12.00;1.00;;;;;;5037899;28;20036;-80
2023/11/07 11:04:59;;;;;;;4.30;1.30;;;12.00;1.00;;;;;;5037258;28;20028;-82
2023/11/07 11:07:26;;;;;;;3.28;1.65;;;12.30;1.00;;;;;;5038452;28;20116;-82
2023/11/07 11:09:53;;;;;;;5.53;1.60;;;12.30;1.00;;;;;;5038460;28;20028;-81
2023/11/07 11:12:21;;;;;;;7.53;2.03;;;12.30;1.00;;;;;;5038665;28;20017;-81
2023/11/07 11:14:49;;;;;;;7.03;2.45;;;12.50;1.00;;;;;;5038316;28;20025;-80
2023/11/07 11:17:29;;;;;;;9.13;2.28;;;12.90;1.00;;;;;;5038697;28;20112;-82
2023/11/07 11:20:03;;;;;;;2.42;1.42;;;12.50;1.00;;;;;;5038462;28;20079;-82
2023/11/07 11:22:55;;;;;;;3.03;1.77;;;12.30;1.00;;;;;;5039302;28;20030;-81
2023/11/07 11:25:51;;;;;;;5.00;1.85;;;12.20;1.00;;;;;;5026107;28;20107;-83
2023/11/07 11:28:16;;;;;;;4.68;1.90;;;12.10;1.00;;;;;;5015757;28;20030;-82
2023/11/07 11:30:54;;;;;;;5.30;2.10;;;11.80;1.00;;;;;;5018824;28;20036;-82
2023/11/07 11:33:26;;;;;;;3.45;1.70;;;11.80;1.00;;;;;;5019659;28;20022;-79
2023/11/07 11:35:52;;;;;;;3.42;1.70;;;11.70;1.00;;;;;;5026193;28;20485;-82
2023/11/07 11:38:19;;;;;;;6.90;1.95;;;11.70;1.00;;;;;;5031539;28;20116;-80
2023/11/07 11:40:50;;;;;;;5.72;1.80;;;11.70;1.00;;;;;;5017829;28;20084;-83
2023/11/07 11:43:18;;;;;;;3.22;2.00;;;11.60;1.00;;;;;;5018962;28;20026;-82
2023/11/07 11:45:44;;;;;;;2.55;1.70;;;11.60;1.00;;;;;;5022684;28;20499;-81
2023/11/07 11:48:10;;;;;;;4.78;1.88;;;11.50;1.00;;;;;;5028113;28;20018;-82
2023/11/07 11:50:37;;;;;;;3.17;1.58;;;11.50;1.00;;;;;;5028418;28;20002;-83
2023/11/07 11:53:05;;;;;;;7.97;1.70;;;11.50;1.00;;;;;;5031113;28;20036;-82
2023/11/07 11:56:00;;;;;;;5.65;2.50;;;11.50;1.00;;;;;;5018198;28;20076;-82
2023/11/07 11:58:31;;;;;;;4.85;1.88;;;11.90;1.00;;;;;;5014496;28;20030;-82
2023/11/07 12:00:58;;;;;;;3.75;1.73;;;12.00;1.00;;;;;;5017506;28;20029;-82
2023/11/07 12:03:34;;;;;;;5.03;1.70;;;12.00;1.00;;;;;;5031322;28;20084;-83
2023/11/07 12:06:02;;;;;;;4.68;1.80;;;12.20;1.00;;;;;;5037177;28;20025;-78
2023/11/07 12:08:38;;;;;;;4.80;1.70;;;12.30;1.00;;;;;;5036488;28;20479;-79
2023/11/07 12:11:04;;;;;;;2.35;1.45;;;12.20;1.00;;;;;;5035754;28;20032;-81
2023/11/07 12:13:31;;;;;;;4.70;1.85;;;12.40;1.00;;;;;;5036637;28;20028;-81
2023/11/07 12:16:15;;;;;;;7.13;1.67;;;12.70;99.90;;;;;;5036913;28;20040;-83
2023/11/07 12:18:42;;;;;;;6.63;2.08;;;12.70;99.90;;;;;;5036102;28;20025;-81
2023/11/07 12:21:09;;;;;;;3.65;1.50;;;12.70;99.90;;;;;;5035216;28;20025;-79
2023/11/07 12:23:35;;;;;;;4.57;1.50;;;12.80;99.90;;;;;;5029802;28;20033;-79
2023/11/07 12:26:01;;;;;;;4.00;1.50;;;12.80;99.90;;;;;;5016664;28;20500;-81
2023/11/07 12:28:27;;;;;;;5.05;1.40;;;12.80;99.90;;;;;;5015944;28;20018;-81
2023/11/07 12:30:54;;;;;;;5.72;1.67;;;12.80;99.90;;;;;;5018708;28;20117;-78
2023/11/07 12:33:20;;;;;;;3.78;1.55;;;12.70;99.90;;;;;;5015663;28;20498;-77
2023/11/07 12:35:46;;;;;;;6.32;1.80;;;12.70;99.90;;;;;;5015573;28;20113;-78
2023/11/07 12:38:15;;;;;;;2.22;1.40;;;12.70;99.90;;;;;;5015788;28;20407;-77
2023/11/07 12:40:41;;;;;;;6.25;1.90;;;12.60;99.90;;;;;;5015739;28;20030;-76
2023/11/07 12:43:08;;;;;;;5.93;1.60;;;12.50;99.90;;;;;;5017468;28;20037;-77
2023/11/07 12:45:36;;;;;;;4.10;1.58;;;12.70;99.90;;;;;;5018584;28;20034;-77
2023/11/07 12:48:09;;;;;;;4.38;1.67;;;12.80;99.90;;;;;;5019323;28;20026;-77
2023/11/07 12:50:42;;;;;;;6.30;1.50;;;12.90;99.90;;;;;;5018588;28;20026;-78
2023/11/07 12:53:08;;;;;;;;;;;12.90;99.90;;;;;;5016941;28;20088;-78
2023/11/07 12:55:35;;;;;;;3.85;1.40;;;13.10;1.00;;;;;;5034809;28;20323;-77